createdAt,value
2023-05-10T00:00:16.393Z,15.0482
2023-05-10T00:01:17.560Z,15.0496
2023-05-10T00:02:19.022Z,15.0427
2023-05-10T00:03:20.435Z,15.0322
2023-05-10T00:04:21.912Z,15.0484
2023-05-10T00:05:23.276Z,15.0476
2023-05-10T00:06:25.295Z,15.0640
2023-05-10T00:07:26.094Z,15.0589
2023-05-10T00:08:27.552Z,15.0258
2023-05-10T00:09:28.925Z,15.0182
2023-05-10T00:10:30.366Z,15.0480
2023-05-10T00:11:31.824Z,15.0603
2023-05-10T00:12:33.201Z,15.0016
2023-05-10T00:13:34.690Z,15.0047
2023-05-10T00:14:36.034Z,14.9993
2023-05-10T00:15:37.517Z,15.0330
2023-05-10T00:16:38.972Z,15.0671
2023-05-10T00:17:40.421Z,15.0597
2023-05-10T00:18:41.631Z,15.0217
2023-05-10T00:19:43.176Z,14.9985
2023-05-10T00:20:44.589Z,14.9969
2023-05-10T00:21:46.079Z,15.0386
2023-05-10T00:22:47.486Z,15.0640
2023-05-10T00:23:48.943Z,15.0577
2023-05-10T00:24:50.321Z,14.9893
2023-05-10T00:25:52.373Z,14.9757
2023-05-10T00:26:53.140Z,14.9954
2023-05-10T00:27:54.613Z,15.0186
2023-05-10T00:28:55.940Z,15.0496
2023-05-10T00:29:57.418Z,15.0844
2023-05-10T00:30:58.849Z,15.0870
2023-05-10T00:32:00.347Z,15.0234
2023-05-10T00:33:01.744Z,14.9847
2023-05-10T00:34:03.197Z,14.9993
2023-05-10T00:35:04.600Z,15.0383
2023-05-10T00:36:05.966Z,15.0593
2023-05-10T00:37:07.385Z,15.0831
2023-05-10T00:38:08.821Z,15.0753
2023-05-10T00:39:10.163Z,14.9946
2023-05-10T00:40:11.637Z,14.9792
2023-05-10T00:41:13.821Z,15.0092
2023-05-10T00:42:14.539Z,15.0369
2023-05-10T00:43:15.873Z,15.0657
2023-05-10T00:44:17.345Z,15.0893
2023-05-10T00:45:18.862Z,15.0554
2023-05-10T00:46:20.349Z,14.9794
2023-05-10T00:47:21.700Z,14.9667
2023-05-10T00:48:23.195Z,14.9640
2023-05-10T00:49:24.548Z,15.0164
2023-05-10T00:50:25.893Z,15.0523
2023-05-10T00:51:27.378Z,15.0825
2023-05-10T00:52:28.848Z,15.0694
2023-05-10T00:53:30.190Z,14.9917
2023-05-10T00:54:31.635Z,14.9755
2023-05-10T00:55:33.033Z,15.0001
2023-05-10T00:56:34.526Z,15.0346
2023-05-10T00:57:35.887Z,15.0609
2023-05-10T00:58:37.200Z,15.0852
2023-05-10T00:59:38.711Z,15.0607
2023-05-10T01:00:40.150Z,14.9833
2023-05-10T01:01:41.601Z,14.9784
2023-05-10T01:02:43.071Z,14.9987
2023-05-10T01:03:44.399Z,15.0299
2023-05-10T01:04:45.851Z,15.0490
2023-05-10T01:05:47.242Z,15.0821
2023-05-10T01:06:48.785Z,15.0932
2023-05-10T01:07:50.124Z,14.9983
2023-05-10T01:08:51.555Z,14.9480
2023-05-10T01:09:52.917Z,14.9580
2023-05-10T01:10:54.373Z,14.9858
2023-05-10T01:11:55.815Z,15.0164
2023-05-10T01:12:57.340Z,15.0464
2023-05-10T01:13:58.704Z,15.0726
2023-05-10T01:15:00.162Z,15.0498
2023-05-10T01:16:01.504Z,14.9681
2023-05-10T01:17:02.913Z,14.9665
2023-05-10T01:18:04.317Z,14.9878
2023-05-10T01:19:05.763Z,15.0174
2023-05-10T01:20:07.144Z,15.0431
2023-05-10T01:21:08.592Z,15.0704
2023-05-10T01:22:09.993Z,15.0618
2023-05-10T01:23:12.366Z,14.9453
2023-05-10T01:24:12.837Z,14.9334
2023-05-10T01:25:14.292Z,14.9488
2023-05-10T01:26:15.720Z,14.9938
2023-05-10T01:27:17.165Z,15.0180
2023-05-10T01:28:18.543Z,15.0488
2023-05-10T01:29:19.976Z,15.0696
2023-05-10T01:30:22.187Z,15.0312
2023-05-10T01:31:22.901Z,14.9463
2023-05-10T01:32:24.281Z,14.9490
2023-05-10T01:33:25.600Z,14.9741
2023-05-10T01:34:27.062Z,15.0082
2023-05-10T01:35:28.546Z,15.0170
2023-05-10T01:36:29.962Z,15.0478
2023-05-10T01:37:31.395Z,15.0683
2023-05-10T01:38:32.762Z,14.9702
2023-05-10T01:39:34.224Z,14.9254
2023-05-10T01:40:35.598Z,14.9309
2023-05-10T01:41:37.037Z,14.9607
2023-05-10T01:42:38.477Z,14.9919
2023-05-10T01:43:39.944Z,15.0139
2023-05-10T01:44:41.290Z,15.0443
2023-05-10T01:45:42.751Z,15.0626
2023-05-10T01:46:44.157Z,14.9938
2023-05-10T01:47:45.681Z,14.9157
2023-05-10T01:48:47.043Z,14.9120
2023-05-10T01:49:48.491Z,14.9311
2023-05-10T01:50:49.755Z,14.9724
2023-05-10T01:51:51.375Z,15.0038
2023-05-10T01:52:53.327Z,15.0291
2023-05-10T01:53:54.140Z,15.0611
2023-05-10T01:54:55.503Z,15.0172
2023-05-10T01:55:57.023Z,14.9229
2023-05-10T01:56:58.436Z,14.9500
2023-05-10T01:57:59.760Z,14.9595
2023-05-10T01:59:01.152Z,14.9812
2023-05-10T02:00:02.678Z,15.0112
2023-05-10T02:01:04.065Z,15.0451
2023-05-10T02:02:05.525Z,15.0560
2023-05-10T02:03:07.026Z,14.9874
2023-05-10T02:04:08.468Z,14.9059
2023-05-10T02:05:09.686Z,14.8952
2023-05-10T02:06:11.284Z,14.9180
2023-05-10T02:07:12.584Z,14.9502
2023-05-10T02:08:14.062Z,14.9905
2023-05-10T02:09:15.484Z,15.0139
2023-05-10T02:10:17.098Z,15.0322
2023-05-10T02:11:18.192Z,15.0225
2023-05-10T02:12:19.726Z,14.9204
2023-05-10T02:13:21.251Z,14.8948
2023-05-10T02:14:22.577Z,14.8898
2023-05-10T02:15:24.028Z,14.9371
2023-05-10T02:16:25.452Z,14.9718
2023-05-10T02:17:26.836Z,14.9989
2023-05-10T02:18:28.269Z,15.0367
2023-05-10T02:19:29.782Z,14.9993
2023-05-10T02:20:31.136Z,14.8670
2023-05-10T02:21:32.555Z,14.8898
2023-05-10T02:22:33.886Z,14.9106
2023-05-10T02:23:35.381Z,14.9488
2023-05-10T02:24:36.780Z,14.9806
2023-05-10T02:25:38.092Z,15.0143
2023-05-10T02:26:39.616Z,15.0379
2023-05-10T02:27:41.115Z,15.0303
2023-05-10T02:28:42.428Z,14.8878
2023-05-10T02:29:43.936Z,14.8746
2023-05-10T02:30:45.294Z,14.8987
2023-05-10T02:31:46.741Z,14.9363
2023-05-10T02:32:48.139Z,14.9619
2023-05-10T02:33:49.582Z,14.9897
2023-05-10T02:34:50.920Z,15.0168
2023-05-10T02:35:52.407Z,15.0398
2023-05-10T02:36:53.810Z,15.0346
2023-05-10T02:37:55.279Z,14.9184
2023-05-10T02:38:56.628Z,14.8937
2023-05-10T02:39:58.130Z,14.9147
2023-05-10T02:40:59.480Z,14.9525
2023-05-10T02:42:00.830Z,14.9814
2023-05-10T02:43:02.405Z,15.0084
2023-05-10T02:44:03.750Z,15.0355
2023-05-10T02:45:05.203Z,15.0513
2023-05-10T02:46:06.631Z,15.0303
2023-05-10T02:47:07.972Z,14.9106
2023-05-10T02:48:09.538Z,14.8820
2023-05-10T02:49:10.792Z,14.9079
2023-05-10T02:50:12.307Z,14.9342
2023-05-10T02:51:14.389Z,14.9636
2023-05-10T02:52:15.157Z,14.9954
2023-05-10T02:53:16.514Z,15.0227
2023-05-10T02:54:17.888Z,15.0472
2023-05-10T02:55:19.416Z,14.9971
2023-05-10T02:56:20.916Z,14.8861
2023-05-10T02:57:22.276Z,14.8843
2023-05-10T02:58:23.737Z,14.9048
2023-05-10T02:59:25.074Z,14.9443
2023-05-10T03:00:26.638Z,14.9804
2023-05-10T03:01:27.990Z,14.9973
2023-05-10T03:02:29.346Z,15.0172
2023-05-10T03:03:30.706Z,15.0519
2023-05-10T03:04:32.294Z,15.0577
2023-05-10T03:05:33.649Z,14.9486
2023-05-10T03:06:35.027Z,14.8911
2023-05-10T03:07:36.424Z,14.9172
2023-05-10T03:08:37.963Z,14.9527
2023-05-10T03:09:39.282Z,14.9798
2023-05-10T03:10:40.648Z,15.0024
2023-05-10T03:11:42.128Z,15.0145
2023-05-10T03:12:43.595Z,15.0414
2023-05-10T03:13:44.934Z,15.0667
2023-05-10T03:14:46.388Z,15.0016
2023-05-10T03:15:48.389Z,14.9564
2023-05-10T03:16:49.346Z,14.9564
2023-05-10T03:17:50.727Z,14.9849
2023-05-10T03:18:52.157Z,15.0116
2023-05-10T03:19:53.438Z,15.0351
2023-05-10T03:20:54.988Z,15.0650
2023-05-10T03:21:56.377Z,15.0733
2023-05-10T03:22:57.817Z,14.9979
2023-05-10T03:23:59.178Z,14.9295
2023-05-10T03:25:00.555Z,14.9217
2023-05-10T03:26:02.070Z,14.9420
2023-05-10T03:27:03.519Z,14.9741
2023-05-10T03:28:04.925Z,15.0071
2023-05-10T03:29:06.322Z,15.0283
2023-05-10T03:30:07.715Z,15.0501
2023-05-10T03:31:09.139Z,15.0698
2023-05-10T03:32:10.658Z,15.0207
2023-05-10T03:33:12.068Z,14.8976
2023-05-10T03:34:13.388Z,14.9044
2023-05-10T03:35:14.858Z,14.9334
2023-05-10T03:36:16.235Z,14.9642
2023-05-10T03:37:17.813Z,14.9888
2023-05-10T03:38:19.177Z,15.0125
2023-05-10T03:39:20.581Z,15.0425
2023-05-10T03:40:21.930Z,15.0589
2023-05-10T03:41:23.435Z,15.0408
2023-05-10T03:42:24.812Z,14.9578
2023-05-10T03:43:26.243Z,14.9317
2023-05-10T03:44:27.628Z,14.9550
2023-05-10T03:45:28.938Z,14.9886
2023-05-10T03:46:30.492Z,15.0135
2023-05-10T03:47:31.976Z,15.0340
2023-05-10T03:48:33.326Z,15.0605
2023-05-10T03:49:34.780Z,15.0287
2023-05-10T03:50:36.134Z,14.9301
2023-05-10T03:51:37.567Z,14.9133
2023-05-10T03:52:39.936Z,14.9348
2023-05-10T03:53:40.378Z,14.9642
2023-05-10T03:54:41.844Z,14.9936
2023-05-10T03:55:43.272Z,15.0266
2023-05-10T03:56:44.671Z,15.0472
2023-05-10T03:57:46.161Z,15.0488
2023-05-10T03:58:47.525Z,14.9492
2023-05-10T03:59:48.941Z,14.9065
2023-05-10T04:00:50.326Z,14.9303
2023-05-10T04:01:51.814Z,14.9406
2023-05-10T04:02:53.314Z,14.9821
2023-05-10T04:03:54.750Z,15.0077
2023-05-10T04:04:56.005Z,15.0441
2023-05-10T04:05:57.532Z,15.0531
2023-05-10T04:06:58.910Z,14.9634
2023-05-10T04:08:00.402Z,14.9322
2023-05-10T04:09:02.375Z,14.9554
2023-05-10T04:10:03.214Z,14.9749
2023-05-10T04:11:04.492Z,15.0016
2023-05-10T04:12:06.491Z,15.0320
2023-05-10T04:13:07.699Z,15.0548
2023-05-10T04:14:08.994Z,15.0151
2023-05-10T04:15:10.283Z,14.9270
2023-05-10T04:16:11.823Z,14.9194
2023-05-10T04:17:13.169Z,14.9428
2023-05-10T04:18:14.621Z,14.9699
2023-05-10T04:19:16.028Z,14.9989
2023-05-10T04:20:17.625Z,15.0346
2023-05-10T04:21:18.825Z,15.0642
2023-05-10T04:22:20.294Z,15.0741
2023-05-10T04:23:21.765Z,14.9874
2023-05-10T04:24:23.155Z,14.9305
2023-05-10T04:25:24.588Z,14.9410
2023-05-10T04:26:25.923Z,14.9849
2023-05-10T04:27:27.372Z,15.0139
2023-05-10T04:28:28.773Z,15.0501
2023-05-10T04:29:30.201Z,15.0700
2023-05-10T04:30:31.676Z,15.0751
2023-05-10T04:31:33.133Z,14.9749
2023-05-10T04:32:35.040Z,14.9395
2023-05-10T04:33:35.925Z,14.9233
2023-05-10T04:34:37.382Z,14.9597
2023-05-10T04:35:38.850Z,14.9981
2023-05-10T04:36:40.224Z,15.0381
2023-05-10T04:37:41.673Z,15.0583
2023-05-10T04:38:43.025Z,15.0784
2023-05-10T04:39:45.459Z,15.0256
2023-05-10T04:40:45.899Z,14.9566
2023-05-10T04:41:47.327Z,14.9562
2023-05-10T04:42:48.745Z,14.9796
2023-05-10T04:43:50.178Z,15.0141
2023-05-10T04:44:51.586Z,15.0492
2023-05-10T04:45:53.036Z,15.0745
2023-05-10T04:46:54.511Z,15.0811
2023-05-10T04:47:56.001Z,14.9379
2023-05-10T04:48:57.334Z,14.9350
2023-05-10T04:49:58.826Z,14.9665
2023-05-10T04:51:00.142Z,15.0073
2023-05-10T04:52:01.671Z,15.0336
2023-05-10T04:53:03.071Z,15.0455
2023-05-10T04:54:06.626Z,15.0766
2023-05-10T04:55:06.907Z,15.0443
2023-05-10T04:56:07.266Z,14.9714
2023-05-10T04:57:08.670Z,14.9671
2023-05-10T04:58:10.128Z,14.9823
2023-05-10T04:59:11.583Z,15.0160
2023-05-10T05:00:12.999Z,15.0535
2023-05-10T05:01:14.383Z,15.0946
2023-05-10T05:02:15.890Z,15.0733
2023-05-10T05:03:17.266Z,14.9619
2023-05-10T05:04:18.618Z,14.9619
2023-05-10T05:05:20.068Z,14.9782
2023-05-10T05:06:21.526Z,15.0236
2023-05-10T05:07:22.845Z,15.0614
2023-05-10T05:08:24.385Z,15.0977
2023-05-10T05:09:25.728Z,15.1162
2023-05-10T05:10:27.134Z,15.0223
2023-05-10T05:11:29.465Z,14.9556
2023-05-10T05:12:30.034Z,14.9593
2023-05-10T05:13:31.458Z,14.9876
2023-05-10T05:14:32.849Z,15.0318
2023-05-10T05:15:34.265Z,15.0669
2023-05-10T05:16:35.865Z,15.1033
2023-05-10T05:17:37.219Z,15.0726
2023-05-10T05:18:38.584Z,14.9987
2023-05-10T05:19:39.990Z,14.9860
2023-05-10T05:20:42.557Z,14.9927
2023-05-10T05:21:42.867Z,15.0396
2023-05-10T05:22:44.298Z,15.0889
2023-05-10T05:23:45.678Z,15.1254
2023-05-10T05:24:47.198Z,15.0412
2023-05-10T05:25:48.525Z,14.9942
2023-05-10T05:26:50.057Z,14.9854
2023-05-10T05:27:51.423Z,14.9808
2023-05-10T05:28:52.767Z,15.0357
2023-05-10T05:29:54.239Z,15.0796
2023-05-10T05:30:55.859Z,15.1148
2023-05-10T05:31:57.237Z,15.0414
2023-05-10T05:32:58.541Z,14.9658
2023-05-10T05:33:59.956Z,14.9650
2023-05-10T05:35:01.449Z,14.9771
2023-05-10T05:36:02.876Z,15.0279
2023-05-10T05:37:04.252Z,15.0737
2023-05-10T05:38:05.653Z,15.1178
2023-05-10T05:39:06.924Z,15.1100
2023-05-10T05:40:08.373Z,15.0003
2023-05-10T05:41:09.937Z,15.0026
2023-05-10T05:42:11.409Z,15.0178
2023-05-10T05:43:13.230Z,15.0494
2023-05-10T05:44:14.071Z,15.1008
2023-05-10T05:45:15.896Z,15.1345
2023-05-10T05:46:17.033Z,15.0829
2023-05-10T05:47:18.462Z,15.0158
2023-05-10T05:48:19.802Z,15.0211
2023-05-10T05:49:21.264Z,15.0147
2023-05-10T05:50:22.649Z,15.0496
2023-05-10T05:51:24.142Z,15.0967
2023-05-10T05:52:25.602Z,15.1178
2023-05-10T05:53:26.905Z,15.0907
2023-05-10T05:54:28.330Z,14.9880
2023-05-10T05:55:29.687Z,14.9681
2023-05-10T05:56:31.251Z,14.9712
2023-05-10T05:57:32.668Z,15.0166
2023-05-10T05:58:34.189Z,15.0669
2023-05-10T05:59:35.480Z,15.1030
2023-05-10T06:00:36.880Z,15.1117
2023-05-10T06:01:38.371Z,15.0646
2023-05-10T06:02:39.940Z,15.0535
2023-05-10T06:03:41.208Z,15.0642
2023-05-10T06:04:44.689Z,15.1176
2023-05-10T06:05:44.110Z,15.1723
2023-05-10T06:06:45.405Z,15.2316
2023-05-10T06:07:46.852Z,15.3621
2023-05-10T06:08:48.219Z,15.6533
2023-05-10T06:09:49.686Z,16.0701
2023-05-10T06:10:51.096Z,16.5212
2023-05-10T06:11:52.543Z,16.9523
2023-05-10T06:12:53.928Z,17.1049
2023-05-10T06:13:55.253Z,17.2163
2023-05-10T06:14:56.731Z,17.3005
2023-05-10T06:15:58.144Z,17.5131
2023-05-10T06:16:59.626Z,17.6904
2023-05-10T06:18:01.046Z,17.9814
2023-05-10T06:19:02.333Z,18.2322
2023-05-10T06:20:03.856Z,18.6940
2023-05-10T06:21:05.186Z,18.7905
2023-05-10T06:22:06.719Z,18.8733
2023-05-10T06:23:08.043Z,19.1551
2023-05-10T06:24:09.655Z,19.5565
2023-05-10T06:25:10.879Z,19.9361
2023-05-10T06:26:12.309Z,20.1735
2023-05-10T06:27:13.812Z,20.1154
2023-05-10T06:28:15.234Z,20.2117
2023-05-10T06:29:16.609Z,20.4796
2023-05-10T06:30:18.222Z,20.9046
2023-05-10T06:31:19.518Z,21.4111
2023-05-10T06:32:20.920Z,21.6738
2023-05-10T06:33:22.311Z,21.3096
2023-05-10T06:34:23.755Z,21.1400
2023-05-10T06:35:25.159Z,21.2361
2023-05-10T06:36:26.689Z,21.4705
2023-05-10T06:37:28.147Z,21.7003
2023-05-10T06:38:29.641Z,21.8837
2023-05-10T06:39:30.878Z,21.8392
2023-05-10T06:40:32.847Z,21.6157
2023-05-10T06:41:33.689Z,21.6568
2023-05-10T06:42:35.311Z,21.8373
2023-05-10T06:43:36.631Z,22.1130
2023-05-10T06:44:37.922Z,22.4092
2023-05-10T06:45:39.346Z,22.1528
2023-05-10T06:46:40.772Z,22.0419
2023-05-10T06:47:42.255Z,22.0885
2023-05-10T06:48:43.718Z,22.2387
2023-05-10T06:49:45.009Z,22.4539
2023-05-10T06:50:46.534Z,22.3416
2023-05-10T06:51:47.913Z,22.2019
2023-05-10T06:52:50.214Z,22.2305
2023-05-10T06:53:51.142Z,22.3864
2023-05-10T06:54:52.216Z,22.5412
2023-05-10T06:55:53.586Z,22.3465
2023-05-10T06:56:55.057Z,22.2728
2023-05-10T06:57:56.494Z,22.3749
2023-05-10T06:58:57.916Z,22.5509
2023-05-10T06:59:59.286Z,22.6957
2023-05-10T07:01:00.804Z,22.5026
2023-05-10T07:02:02.180Z,22.5030
2023-05-10T07:03:03.644Z,22.6573
2023-05-10T07:04:04.960Z,22.8019
2023-05-10T07:05:06.474Z,22.7666
2023-05-10T07:06:11.356Z,22.5180
2023-05-10T07:07:09.323Z,22.6046
2023-05-10T07:08:10.747Z,22.7277
2023-05-10T07:09:12.213Z,22.8274
2023-05-10T07:10:13.531Z,22.7526
2023-05-10T07:11:14.998Z,22.5314
2023-05-10T07:12:16.729Z,22.6267
2023-05-10T07:13:17.915Z,22.7489
2023-05-10T07:14:19.287Z,22.8785
2023-05-10T07:15:20.763Z,22.7454
2023-05-10T07:16:22.058Z,22.6066
2023-05-10T07:17:23.593Z,22.7029
2023-05-10T07:18:24.926Z,22.8436
2023-05-10T07:19:26.388Z,22.7892
2023-05-10T07:20:27.814Z,22.3132
2023-05-10T07:21:29.293Z,21.9829
2023-05-10T07:22:30.596Z,21.8162
2023-05-10T07:23:32.123Z,21.7523
2023-05-10T07:24:33.456Z,21.7022
2023-05-10T07:25:34.932Z,21.4401
2023-05-10T07:26:36.404Z,21.0753
2023-05-10T07:27:37.743Z,20.9869
2023-05-10T07:28:39.300Z,20.9526
2023-05-10T07:29:40.615Z,20.8855
2023-05-10T07:30:42.089Z,20.8571
2023-05-10T07:31:43.433Z,20.6844
2023-05-10T07:32:44.896Z,20.3746
2023-05-10T07:33:46.283Z,20.2959
2023-05-10T07:34:47.732Z,20.2169
2023-05-10T07:35:49.138Z,20.2238
2023-05-10T07:36:50.571Z,20.2201
2023-05-10T07:37:51.997Z,20.2401
2023-05-10T07:38:53.433Z,20.0291
2023-05-10T07:39:54.922Z,19.7302
2023-05-10T07:40:56.314Z,19.6569
2023-05-10T07:41:57.589Z,19.6216
2023-05-10T07:42:59.162Z,19.6257
2023-05-10T07:44:00.589Z,19.6358
2023-05-10T07:45:02.032Z,19.6764
2023-05-10T07:46:03.501Z,19.6534
2023-05-10T07:47:04.803Z,19.3613
2023-05-10T07:48:06.387Z,19.2130
2023-05-10T07:49:07.585Z,19.1685
2023-05-10T07:50:09.217Z,19.2073
2023-05-10T07:51:10.630Z,19.2837
2023-05-10T07:52:12.051Z,19.3098
2023-05-10T07:53:13.424Z,19.3628
2023-05-10T07:54:14.887Z,19.2595
2023-05-10T07:55:16.533Z,19.0111
2023-05-10T07:56:17.741Z,18.9557
2023-05-10T07:57:19.013Z,18.9561
2023-05-10T07:58:20.498Z,19.0068
2023-05-10T07:59:21.980Z,19.0419
2023-05-10T08:00:23.470Z,19.0656
2023-05-10T08:01:24.819Z,19.1126
2023-05-10T08:02:26.407Z,19.0391
2023-05-10T08:03:27.759Z,18.8032
2023-05-10T08:04:29.372Z,18.7398
2023-05-10T08:05:30.535Z,18.7615
2023-05-10T08:06:32.062Z,18.8445
2023-05-10T08:07:33.399Z,18.9267
2023-05-10T08:08:34.796Z,18.9760
2023-05-10T08:09:36.447Z,19.0493
2023-05-10T08:10:37.708Z,18.8852
2023-05-10T08:11:39.092Z,18.7118
2023-05-10T08:12:40.622Z,18.7848
2023-05-10T08:13:41.825Z,18.8328
2023-05-10T08:14:43.706Z,18.9489
2023-05-10T08:15:44.798Z,19.0645
2023-05-10T08:16:46.244Z,19.1680
2023-05-10T08:17:47.595Z,18.9746
2023-05-10T08:18:49.118Z,18.7755
2023-05-10T08:19:50.416Z,18.8065
2023-05-10T08:20:51.821Z,18.8885
2023-05-10T08:21:53.357Z,18.9840
2023-05-10T08:22:54.823Z,19.0674
2023-05-10T08:23:56.245Z,19.1405
2023-05-10T08:24:57.669Z,19.1469
2023-05-10T08:25:59.034Z,18.9308
2023-05-10T08:27:00.496Z,18.8507
2023-05-10T08:28:01.876Z,18.9074
2023-05-10T08:29:03.291Z,18.9678
2023-05-10T08:30:04.726Z,19.0460
2023-05-10T08:31:06.289Z,19.0931
2023-05-10T08:32:07.623Z,19.1522
2023-05-10T08:33:08.985Z,19.0419
2023-05-10T08:34:10.417Z,18.8382
2023-05-10T08:35:11.841Z,18.8092
2023-05-10T08:36:13.355Z,18.8879
2023-05-10T08:37:14.792Z,18.9503
2023-05-10T08:38:16.098Z,19.0477
2023-05-10T08:39:29.383Z,19.1317
2023-05-10T08:40:19.071Z,19.1076
2023-05-10T08:41:20.440Z,18.8412
2023-05-10T08:42:22.185Z,18.7605
2023-05-10T08:43:23.225Z,18.8119
2023-05-10T08:44:24.689Z,18.8998
2023-05-10T08:45:26.196Z,18.9579
2023-05-10T08:46:27.715Z,19.0384
2023-05-10T08:47:29.053Z,19.0853
2023-05-10T08:48:30.726Z,19.1317
2023-05-10T08:49:32.011Z,18.9029
2023-05-10T08:50:33.432Z,18.7926
2023-05-10T08:51:34.835Z,18.7562
2023-05-10T08:52:36.446Z,18.8166
2023-05-10T08:53:37.695Z,18.8599
2023-05-10T08:54:39.080Z,18.8862
2023-05-10T08:55:40.321Z,18.8852
2023-05-10T08:56:42.055Z,18.9302
2023-05-10T08:57:43.373Z,18.7708
2023-05-10T08:58:44.722Z,18.5937
2023-05-10T08:59:46.221Z,18.5746
2023-05-10T09:00:48.158Z,18.6196
2023-05-10T09:01:49.124Z,18.6946
2023-05-10T09:02:50.689Z,18.7416
2023-05-10T09:03:51.811Z,18.7544
2023-05-10T09:04:53.354Z,18.8041
2023-05-10T09:05:54.729Z,18.7956
2023-05-10T09:06:56.194Z,18.6087
2023-05-10T09:07:57.533Z,18.5943
2023-05-10T09:08:59.291Z,18.6420
2023-05-10T09:10:00.372Z,18.7607
2023-05-10T09:11:01.761Z,18.8583
2023-05-10T09:12:03.305Z,18.9201
2023-05-10T09:13:04.840Z,18.9744
2023-05-10T09:14:06.045Z,18.7675
2023-05-10T09:15:07.460Z,18.6274
2023-05-10T09:16:20.439Z,18.7090
2023-05-10T09:17:10.503Z,18.8001
2023-05-10T09:18:11.857Z,18.8969
2023-05-10T09:19:13.385Z,18.9824
2023-05-10T09:20:14.494Z,19.0758
2023-05-10T09:21:16.217Z,18.9877
2023-05-10T09:22:17.456Z,18.7472
2023-05-10T09:23:18.761Z,18.7527
2023-05-10T09:24:20.348Z,18.8382
2023-05-10T09:25:21.793Z,18.9133
2023-05-10T09:26:23.058Z,18.9941
2023-05-10T09:27:24.776Z,19.0421
2023-05-10T09:28:26.133Z,19.0269
2023-05-10T09:29:27.615Z,18.8429
2023-05-10T09:30:28.786Z,18.7102
2023-05-10T09:31:30.589Z,18.7096
2023-05-10T09:32:31.779Z,18.7915
2023-05-10T09:33:33.402Z,18.8540
2023-05-10T09:34:34.531Z,18.9113
2023-05-10T09:35:35.848Z,18.9372
2023-05-10T09:36:37.707Z,18.9768
2023-05-10T09:37:38.679Z,18.7667
2023-05-10T09:38:40.405Z,18.6948
2023-05-10T09:39:41.631Z,18.7355
2023-05-10T09:40:43.038Z,18.7874
2023-05-10T09:41:44.532Z,18.8727
2023-05-10T09:42:46.231Z,18.9546
2023-05-10T09:43:47.525Z,18.9770
2023-05-10T09:44:49.109Z,18.9158
2023-05-10T09:45:50.174Z,18.7338
2023-05-10T09:46:51.746Z,18.7205
2023-05-10T09:47:53.214Z,18.8244
2023-05-10T09:48:54.503Z,18.9074
2023-05-10T09:49:55.864Z,18.9526
2023-05-10T09:50:57.395Z,19.0093
2023-05-10T09:51:58.822Z,18.9811
2023-05-10T09:53:00.195Z,18.8191
2023-05-10T09:54:01.683Z,18.7689
2023-05-10T09:55:02.993Z,18.8591
2023-05-10T09:56:04.514Z,18.9240
2023-05-10T09:57:05.931Z,19.0183
2023-05-10T09:58:07.360Z,19.1019
2023-05-10T09:59:08.895Z,19.1800
2023-05-10T10:00:10.143Z,18.9877
2023-05-10T10:01:12.015Z,18.8836
2023-05-10T10:02:13.186Z,18.9277
2023-05-10T10:03:14.457Z,18.9879
2023-05-10T10:04:15.916Z,19.0428
2023-05-10T10:05:17.717Z,19.1089
2023-05-10T10:06:26.802Z,19.1783
2023-05-10T10:07:20.180Z,19.0738
2023-05-10T10:08:22.334Z,18.9218
2023-05-10T10:09:23.210Z,18.8774
2023-05-10T10:10:24.336Z,18.9238
2023-05-10T10:11:25.782Z,18.9694
2023-05-10T10:12:27.338Z,19.0202
2023-05-10T10:13:28.900Z,19.0413
2023-05-10T10:14:30.250Z,19.0524
2023-05-10T10:15:31.555Z,18.9540
2023-05-10T10:16:33.023Z,18.8624
2023-05-10T10:17:34.394Z,18.8889
2023-05-10T10:18:35.781Z,18.9433
2023-05-10T10:19:37.604Z,18.9783
2023-05-10T10:20:38.587Z,19.0259
2023-05-10T10:21:40.161Z,19.0738
2023-05-10T10:22:41.494Z,18.9877
2023-05-10T10:23:43.074Z,18.8938
2023-05-10T10:24:44.508Z,18.8990
2023-05-10T10:25:45.814Z,18.9474
2023-05-10T10:26:47.262Z,19.0148
2023-05-10T10:27:48.604Z,19.0331
2023-05-10T10:28:50.323Z,19.0692
2023-05-10T10:29:51.511Z,18.9924
2023-05-10T10:30:53.041Z,18.9353
2023-05-10T10:31:54.297Z,18.9090
2023-05-10T10:32:55.699Z,18.9540
2023-05-10T10:33:57.176Z,19.0113
2023-05-10T10:34:58.738Z,19.0590
2023-05-10T10:35:59.968Z,19.1138
2023-05-10T10:37:01.445Z,19.0863
2023-05-10T10:38:02.859Z,18.9633
2023-05-10T10:39:04.607Z,18.9310
2023-05-10T10:40:05.714Z,19.0058
2023-05-10T10:41:07.176Z,19.0695
2023-05-10T10:42:08.454Z,19.1091
2023-05-10T10:43:10.154Z,19.1730
2023-05-10T10:44:11.735Z,19.1465
2023-05-10T10:45:12.903Z,19.0124
2023-05-10T10:46:14.284Z,18.9380
2023-05-10T10:47:15.625Z,19.0148
2023-05-10T10:48:17.092Z,19.0836
2023-05-10T10:49:18.611Z,19.1296
2023-05-10T10:50:20.035Z,19.1613
2023-05-10T10:51:21.342Z,19.1633
2023-05-10T10:52:22.788Z,19.0475
2023-05-10T10:53:24.281Z,19.0185
2023-05-10T10:54:25.716Z,19.0754
2023-05-10T10:55:27.197Z,19.1559
2023-05-10T10:56:28.480Z,19.2247
2023-05-10T10:57:29.910Z,19.2556
2023-05-10T10:58:31.257Z,19.2241
2023-05-10T10:59:32.734Z,19.0744
2023-05-10T11:00:34.220Z,19.0801
2023-05-10T11:01:35.700Z,19.1348
2023-05-10T11:02:37.105Z,19.2307
2023-05-10T11:03:38.400Z,19.3402
2023-05-10T11:04:40.122Z,19.4295
2023-05-10T11:05:41.527Z,19.2921
2023-05-10T11:06:42.617Z,19.1487
2023-05-10T11:07:44.413Z,19.1159
2023-05-10T11:08:45.746Z,19.2155
2023-05-10T11:09:48.166Z,19.3691
2023-05-10T11:10:48.642Z,19.5031
2023-05-10T11:11:50.230Z,19.6214
2023-05-10T11:12:51.142Z,19.5639
2023-05-10T11:13:52.663Z,19.4273
2023-05-10T11:14:54.038Z,19.4098
2023-05-10T11:15:55.528Z,19.5027
2023-05-10T11:16:56.924Z,19.5982
2023-05-10T11:17:58.340Z,19.6894
2023-05-10T11:18:59.771Z,19.7311
2023-05-10T11:20:01.170Z,19.5263
2023-05-10T11:21:02.664Z,19.4589
2023-05-10T11:22:04.069Z,19.5246
2023-05-10T11:23:05.432Z,19.6571
2023-05-10T11:24:07.103Z,19.7929
2023-05-10T11:25:08.500Z,19.7857
2023-05-10T11:26:09.582Z,19.5846
2023-05-10T11:27:11.069Z,19.5579
2023-05-10T11:28:12.466Z,19.6290
2023-05-10T11:29:13.976Z,19.7138
2023-05-10T11:30:15.877Z,19.7783
2023-05-10T11:31:16.945Z,19.8169
2023-05-10T11:32:18.161Z,19.6571
2023-05-10T11:33:19.610Z,19.4850
2023-05-10T11:34:20.992Z,19.4897
2023-05-10T11:35:22.446Z,19.5524
2023-05-10T11:36:23.871Z,19.6070
2023-05-10T11:37:25.305Z,19.6787
2023-05-10T11:38:26.735Z,19.6483
2023-05-10T11:39:28.106Z,19.4184
2023-05-10T11:40:29.548Z,19.3353
2023-05-10T11:41:31.093Z,19.3566
2023-05-10T11:42:32.340Z,19.3829
2023-05-10T11:43:33.984Z,19.4176
2023-05-10T11:44:35.294Z,19.4667
2023-05-10T11:45:36.633Z,19.4295
2023-05-10T11:46:38.446Z,19.1791
2023-05-10T11:47:40.794Z,19.0686
2023-05-10T11:48:40.970Z,19.1048
2023-05-10T11:49:42.316Z,19.1740
2023-05-10T11:50:43.884Z,19.2291
2023-05-10T11:51:45.198Z,19.3051
2023-05-10T11:52:46.941Z,19.2632
2023-05-10T11:53:48.048Z,19.0565
2023-05-10T11:54:49.474Z,19.0132
2023-05-10T11:55:50.931Z,19.0881
2023-05-10T11:56:52.398Z,19.2061
2023-05-10T11:57:54.115Z,19.3353
2023-05-10T11:58:55.142Z,19.4314
2023-05-10T11:59:56.659Z,19.3609
2023-05-10T12:00:57.995Z,19.1902
2023-05-10T12:01:59.826Z,19.1167
2023-05-10T12:03:01.180Z,19.1943
2023-05-10T12:04:02.493Z,19.3034
2023-05-10T12:05:04.721Z,19.4803
2023-05-10T12:06:05.098Z,19.4776
2023-05-10T12:07:06.653Z,19.2116
2023-05-10T12:08:08.001Z,19.0953
2023-05-10T12:09:09.539Z,19.1783
2023-05-10T12:10:10.802Z,19.2742
2023-05-10T12:11:12.315Z,19.4287
2023-05-10T12:12:13.724Z,19.5405
2023-05-10T12:13:15.200Z,19.5261
2023-05-10T12:14:16.514Z,19.2689
2023-05-10T12:15:17.974Z,19.2206
2023-05-10T12:16:19.633Z,19.2718
2023-05-10T12:17:20.795Z,19.3313
2023-05-10T12:18:22.207Z,19.4162
2023-05-10T12:19:23.620Z,19.4671
2023-05-10T12:20:25.030Z,19.4591
2023-05-10T12:21:26.499Z,19.2058
2023-05-10T12:22:27.972Z,19.1077